sensor_id;sensor_type;location;lat;lon;timestamp;pressure;altitude;pressure_sealevel;temperature;humidity
12763;BME280;6445;52.490;13.378;2024-01-15T00:01:02;116334.38;;;-146.10;100.00
12763;BME280;6445;52.490;13.378;2024-01-15T00:03:28;117115.03;;;-146.10;100.00
12763;BME280;6445;52.490;13.378;2024-01-15T00:05:53;117895.81;;;-146.10;100.00
12763;BME280;6445;52.490;13.378;2024-01-15T00:08:19;118156.13;;;-146.10;100.00
12763;BME280;6445;52.490;13.378;2024-01-15T00:10:44;118156.13;;;-146.10;100.00
12763;BME280;6445;52.490;13.378;2024-01-15T00:13:09;118156.13;;;-146.10;100.00
12763;BME280;6445;52.490;13.378;2024-01-15T00:15:34;118156.13;;;-146.10;100.00
12763;BME280;6445;52.490;13.378;2024-01-15T00:18:00;118156.13;;;-146.10;100.00
12763;BME280;6445;52.490;13.378;2024-01-15T00:20:25;118156.13;;;-146.10;100.00
12763;BME280;6445;52.490;13.378;2024-01-15T00:22:50;118156.13;;;-146.10;100.00
12763;BME280;6445;52.490;13.378;2024-01-15T00:25:15;117895.81;;;-146.10;100.00
12763;BME280;6445;52.490;13.378;2024-01-15T00:27:41;117895.81;;;-146.10;100.00
12763;BME280;6445;52.490;13.378;2024-01-15T00:30:06;117635.53;;;-146.10;100.00
12763;BME280;6445;52.490;13.378;2024-01-15T00:32:31;117375.28;;;-146.10;100.00
12763;BME280;6445;52.490;13.378;2024-01-15T00:34:57;117115.03;;;-146.10;100.00
12763;BME280;6445;52.490;13.378;2024-01-15T00:37:22;116854.78;;;-146.10;100.00
12763;BME280;6445;52.490;13.378;2024-01-15T00:39:47;116854.78;;;-146.10;100.00
12763;BME280;6445;52.490;13.378;2024-01-15T00:42:12;116594.56;;;-146.10;100.00
12763;BME280;6445;52.490;13.378;2024-01-15T00:44:38;116334.38;;;-146.10;100.00
12763;BME280;6445;52.490;13.378;2024-01-15T00:47:03;116074.19;;;-146.10;100.00
12763;BME280;6445;52.490;13.378;2024-01-15T00:49:28;115293.72;;;-146.10;100.00
12763;BME280;6445;52.490;13.378;2024-01-15T00:51:54;115553.88;;;-146.10;100.00
12763;BME280;6445;52.490;13.378;2024-01-15T00:54:19;115293.72;;;-146.10;100.00
12763;BME280;6445;52.490;13.378;2024-01-15T00:56:44;114773.50;;;-146.10;100.00
12763;BME280;6445;52.490;13.378;2024-01-15T00:59:09;114513.44;;;-146.10;100.00
12763;BME280;6445;52.490;13.378;2024-01-15T01:01:35;115033.63;;;-146.10;100.00
12763;BME280;6445;52.490;13.378;2024-01-15T01:04:01;115553.88;;;-146.10;100.00
12763;BME280;6445;52.490;13.378;2024-01-15T01:06:26;115814.03;;;-146.10;100.00
12763;BME280;6445;52.490;13.378;2024-01-15T01:08:51;116074.19;;;-146.10;100.00
12763;BME280;6445;52.490;13.378;2024-01-15T01:11:17;116334.38;;;-146.10;100.00
12763;BME280;6445;52.490;13.378;2024-01-15T01:13:42;116334.38;;;-146.10;100.00
12763;BME280;6445;52.490;13.378;2024-01-15T01:16:07;116594.56;;;-146.10;100.00
12763;BME280;6445;52.490;13.378;2024-01-15T01:18:33;116854.78;;;-146.10;100.00
12763;BME280;6445;52.490;13.378;2024-01-15T01:20:58;117375.28;;;-146.10;100.00
12763;BME280;6445;52.490;13.378;2024-01-15T01:23:23;117895.81;;;-146.10;100.00
12763;BME280;6445;52.490;13.378;2024-01-15T01:25:49;118156.13;;;-146.10;100.00
12763;BME280;6445;52.490;13.378;2024-01-15T01:28:14;118156.13;;;-146.10;100.00
12763;BME280;6445;52.490;13.378;2024-01-15T01:30:39;118156.13;;;-146.10;100.00
12763;BME280;6445;52.490;13.378;2024-01-15T01:33:05;118156.13;;;-146.10;100.00
12763;BME280;6445;52.490;13.378;2024-01-15T01:35:30;118416.44;;;-146.10;100.00
12763;BME280;6445;52.490;13.378;2024-01-15T01:37:55;118156.13;;;-146.10;100.00
12763;BME280;6445;52.490;13.378;2024-01-15T01:40:21;118156.13;;;-146.10;100.00
12763;BME280;6445;52.490;13.378;2024-01-15T01:42:46;118416.44;;;-146.10;100.00
12763;BME280;6445;52.490;13.378;2024-01-15T01:45:11;118418.47;;;-146.10;100.00
12763;BME280;6445;52.490;13.378;2024-01-15T01:47:37;118418.47;;;-146.10;100.00
12763;BME280;6445;52.490;13.378;2024-01-15T01:50:04;118418.47;;;-146.10;100.00
12763;BME280;6445;52.490;13.378;2024-01-15T01:52:30;118418.47;;;-146.10;100.00
12763;BME280;6445;52.490;13.378;2024-01-15T01:54:55;118418.47;;;-146.10;100.00
12763;BME280;6445;52.490;13.378;2024-01-15T01:57:21;118418.47;;;-146.10;100.00
12763;BME280;6445;52.490;13.378;2024-01-15T01:59:46;118418.47;;;-146.10;100.00
12763;BME280;6445;52.490;13.378;2024-01-15T02:02:12;118418.47;;;-146.10;100.00
12763;BME280;6445;52.490;13.378;2024-01-15T02:04:37;118418.47;;;-146.10;100.00
12763;BME280;6445;52.490;13.378;2024-01-15T02:07:03;118416.44;;;-146.10;100.00
12763;BME280;6445;52.490;13.378;2024-01-15T02:09:29;118416.44;;;-146.10;100.00
12763;BME280;6445;52.490;13.378;2024-01-15T02:11:54;118416.44;;;-146.10;100.00
12763;BME280;6445;52.490;13.378;2024-01-15T02:14:20;118416.44;;;-146.10;100.00
12763;BME280;6445;52.490;13.378;2024-01-15T02:16:45;118416.44;;;-146.10;100.00
12763;BME280;6445;52.490;13.378;2024-01-15T02:19:17;118416.44;;;-146.10;100.00
12763;BME280;6445;52.490;13.378;2024-01-15T02:21:42;118156.13;;;-146.10;100.00
12763;BME280;6445;52.490;13.378;2024-01-15T02:24:08;117635.53;;;-146.10;100.00
12763;BME280;6445;52.490;13.378;2024-01-15T02:26:33;117635.53;;;-146.10;100.00
12763;BME280;6445;52.490;13.378;2024-01-15T02:29:01;117375.28;;;-146.10;100.00
12763;BME280;6445;52.490;13.378;2024-01-15T02:31:27;117115.03;;;-146.10;100.00
12763;BME280;6445;52.490;13.378;2024-01-15T02:33:52;116854.78;;;-146.10;100.00
12763;BME280;6445;52.490;13.378;2024-01-15T02:36:17;116854.78;;;-146.10;100.00
12763;BME280;6445;52.490;13.378;2024-01-15T02:38:42;116854.78;;;-146.10;100.00
12763;BME280;6445;52.490;13.378;2024-01-15T02:41:08;116594.56;;;-146.10;100.00
12763;BME280;6445;52.490;13.378;2024-01-15T02:43:33;116074.19;;;-146.10;100.00
12763;BME280;6445;52.490;13.378;2024-01-15T02:45:58;115293.72;;;-146.10;100.00
12763;BME280;6445;52.490;13.378;2024-01-15T02:48:23;115553.88;;;-146.10;100.00
12763;BME280;6445;52.490;13.378;2024-01-15T02:50:48;115553.88;;;-146.10;100.00
12763;BME280;6445;52.490;13.378;2024-01-15T02:53:14;115553.88;;;-146.10;100.00
12763;BME280;6445;52.490;13.378;2024-01-15T02:55:39;115293.72;;;-146.10;100.00
12763;BME280;6445;52.490;13.378;2024-01-15T02:58:04;115814.03;;;-146.10;100.00
12763;BME280;6445;52.490;13.378;2024-01-15T03:00:29;115553.88;;;-146.10;100.00
12763;BME280;6445;52.490;13.378;2024-01-15T03:02:55;114773.50;;;-146.10;100.00
12763;BME280;6445;52.490;13.378;2024-01-15T03:05:20;115033.63;;;-146.10;100.00
12763;BME280;6445;52.490;13.378;2024-01-15T03:07:45;115033.63;;;-146.10;100.00
12763;BME280;6445;52.490;13.378;2024-01-15T03:10:11;114773.50;;;-146.10;100.00
12763;BME280;6445;52.490;13.378;2024-01-15T03:12:36;114773.50;;;-146.10;100.00
12763;BME280;6445;52.490;13.378;2024-01-15T03:15:01;113993.31;;;-146.10;100.00
12763;BME280;6445;52.490;13.378;2024-01-15T03:17:27;113473.25;;;-146.10;100.00
12763;BME280;6445;52.490;13.378;2024-01-15T03:19:52;113473.25;;;-146.10;100.00
12763;BME280;6445;52.490;13.378;2024-01-15T03:22:18;113473.25;;;-146.10;100.00
12763;BME280;6445;52.490;13.378;2024-01-15T03:24:43;113473.25;;;-146.10;100.00
12763;BME280;6445;52.490;13.378;2024-01-15T03:27:09;113473.25;;;-146.10;100.00
12763;BME280;6445;52.490;13.378;2024-01-15T03:29:34;113473.25;;;-146.10;100.00
12763;BME280;6445;52.490;13.378;2024-01-15T03:31:59;113213.25;;;-146.10;100.00
12763;BME280;6445;52.490;13.378;2024-01-15T03:34:25;112693.28;;;-146.10;100.00
12763;BME280;6445;52.490;13.378;2024-01-15T03:36:50;112693.28;;;-146.10;100.00
12763;BME280;6445;52.490;13.378;2024-01-15T03:39:15;112173.41;;;-146.10;100.00
12763;BME280;6445;52.490;13.378;2024-01-15T03:41:40;112173.41;;;-146.10;100.00
12763;BME280;6445;52.490;13.378;2024-01-15T03:44:06;111913.50;;;-146.10;100.00
12763;BME280;6445;52.490;13.378;2024-01-15T03:46:31;111913.50;;;-146.10;100.00
12763;BME280;6445;52.490;13.378;2024-01-15T03:48:56;111393.69;;;-146.10;100.00
12763;BME280;6445;52.490;13.378;2024-01-15T03:51:22;111653.59;;;-146.10;100.00
12763;BME280;6445;52.490;13.378;2024-01-15T03:53:47;111913.50;;;-146.10;100.00
12763;BME280;6445;52.490;13.378;2024-01-15T03:56:13;111393.69;;;-146.10;100.00
12763;BME280;6445;52.490;13.378;2024-01-15T03:58:38;110873.97;;;-146.10;100.00
12763;BME280;6445;52.490;13.378;2024-01-15T04:01:03;110614.13;;;-146.10;100.00
12763;BME280;6445;52.490;13.378;2024-01-15T04:03:32;110094.50;;;-146.10;100.00
12763;BME280;6445;52.490;13.378;2024-01-15T04:05:57;110094.50;;;-146.10;100.00
12763;BME280;6445;52.490;13.378;2024-01-15T04:08:23;110094.50;;;-146.10;100.00
12763;BME280;6445;52.490;13.378;2024-01-15T04:10:48;109834.72;;;-146.10;100.00
12763;BME280;6445;52.490;13.378;2024-01-15T04:13:13;110354.31;;;-146.10;100.00
12763;BME280;6445;52.490;13.378;2024-01-15T04:15:38;109574.94;;;-146.10;100.00
12763;BME280;6445;52.490;13.378;2024-01-15T04:18:04;109315.19;;;-146.10;100.00
12763;BME280;6445;52.490;13.378;2024-01-15T04:20:29;108795.75;;;-146.10;100.00
12763;BME280;6445;52.490;13.378;2024-01-15T04:22:54;109315.19;;;-146.10;100.00
12763;BME280;6445;52.490;13.378;2024-01-15T04:25:20;109055.47;;;-146.10;100.00
12763;BME280;6445;52.490;13.378;2024-01-15T04:27:45;108795.75;;;-146.10;100.00
12763;BME280;6445;52.490;13.378;2024-01-15T04:30:10;108276.34;;;-146.10;100.00
12763;BME280;6445;52.490;13.378;2024-01-15T04:32:36;108016.69;;;-146.10;100.00
12763;BME280;6445;52.490;13.378;2024-01-15T04:35:01;108016.69;;;-146.10;100.00
12763;BME280;6445;52.490;13.378;2024-01-15T04:37:27;107237.78;;;-146.10;100.00
12763;BME280;6445;52.490;13.378;2024-01-15T04:39:52;106718.56;;;-146.10;100.00
12763;BME280;6445;52.490;13.378;2024-01-15T04:42:20;106978.16;;;-146.10;100.00
12763;BME280;6445;52.490;13.378;2024-01-15T04:44:45;106459.00;;;-146.10;100.00
12763;BME280;6445;52.490;13.378;2024-01-15T04:47:10;106199.44;;;-146.10;100.00
12763;BME280;6445;52.490;13.378;2024-01-15T04:49:36;106199.44;;;-146.10;100.00
12763;BME280;6445;52.490;13.378;2024-01-15T04:52:01;105680.38;;;-146.10;100.00
12763;BME280;6445;52.490;13.378;2024-01-15T04:54:26;105939.91;;;-146.10;100.00
12763;BME280;6445;52.490;13.378;2024-01-15T04:56:52;106199.44;;;-146.10;100.00
12763;BME280;6445;52.490;13.378;2024-01-15T04:59:17;106199.44;;;-146.10;100.00
12763;BME280;6445;52.490;13.378;2024-01-15T05:01:43;106459.00;;;-146.10;100.00
12763;BME280;6445;52.490;13.378;2024-01-15T05:04:08;105680.38;;;-146.10;100.00
12763;BME280;6445;52.490;13.378;2024-01-15T05:06:33;104123.59;;;-146.10;100.00
12763;BME280;6445;52.490;13.378;2024-01-15T05:08:58;103864.19;;;-146.10;100.00
12763;BME280;6445;52.490;13.378;2024-01-15T05:11:24;103086.06;;;-146.10;100.00
12763;BME280;6445;52.490;13.378;2024-01-15T05:13:49;104123.59;;;-146.10;100.00
12763;BME280;6445;52.490;13.378;2024-01-15T05:16:15;105939.91;;;-146.10;100.00
12763;BME280;6445;52.490;13.378;2024-01-15T05:18:40;107237.78;;;-146.10;100.00
12763;BME280;6445;52.490;13.378;2024-01-15T05:21:05;108536.03;;;-146.10;100.00
12763;BME280;6445;52.490;13.378;2024-01-15T05:23:31;109055.47;;;-146.10;100.00
12763;BME280;6445;52.490;13.378;2024-01-15T05:25:56;108795.75;;;-146.10;100.00
12763;BME280;6445;52.490;13.378;2024-01-15T05:28:22;109055.47;;;-146.10;100.00
12763;BME280;6445;52.490;13.378;2024-01-15T05:30:47;108795.75;;;-146.10;100.00
12763;BME280;6445;52.490;13.378;2024-01-15T05:33:12;108536.03;;;-146.10;100.00
12763;BME280;6445;52.490;13.378;2024-01-15T05:35:37;107497.38;;;-146.10;100.00
12763;BME280;6445;52.490;13.378;2024-01-15T05:38:03;106978.16;;;-146.10;100.00
12763;BME280;6445;52.490;13.378;2024-01-15T05:40:28;106199.44;;;-146.10;100.00
12763;BME280;6445;52.490;13.378;2024-01-15T05:42:53;106459.00;;;-146.10;100.00
12763;BME280;6445;52.490;13.378;2024-01-15T05:45:19;105939.91;;;-146.10;100.00
12763;BME280;6445;52.490;13.378;2024-01-15T05:47:44;105680.38;;;-146.10;100.00
12763;BME280;6445;52.490;13.378;2024-01-15T05:50:09;105420.88;;;-146.10;100.00
12763;BME280;6445;52.490;13.378;2024-01-15T05:52:35;105680.38;;;-146.10;100.00
12763;BME280;6445;52.490;13.378;2024-01-15T05:55:00;106718.56;;;-146.10;100.00
12763;BME280;6445;52.490;13.378;2024-01-15T05:57:25;109315.19;;;-146.10;100.00
12763;BME280;6445;52.490;13.378;2024-01-15T05:59:51;110873.97;;;-146.10;100.00
12763;BME280;6445;52.490;13.378;2024-01-15T06:02:16;112173.41;;;-146.10;100.00
12763;BME280;6445;52.490;13.378;2024-01-15T06:04:42;113213.25;;;-146.10;100.00
12763;BME280;6445;52.490;13.378;2024-01-15T06:07:07;112953.25;;;-146.10;100.00
12763;BME280;6445;52.490;13.378;2024-01-15T06:09:32;111653.59;;;-146.10;100.00
12763;BME280;6445;52.490;13.378;2024-01-15T06:11:58;111393.69;;;-146.10;100.00
12763;BME280;6445;52.490;13.378;2024-01-15T06:14:23;111393.69;;;-146.10;100.00
12763;BME280;6445;52.490;13.378;2024-01-15T06:16:48;111653.59;;;-146.10;100.00
12763;BME280;6445;52.490;13.378;2024-01-15T06:19:14;110614.13;;;-146.10;100.00
12763;BME280;6445;52.490;13.378;2024-01-15T06:21:39;110354.31;;;-146.10;100.00
12763;BME280;6445;52.490;13.378;2024-01-15T06:24:05;109574.94;;;-146.10;100.00
12763;BME280;6445;52.490;13.378;2024-01-15T06:26:30;107497.38;;;-146.10;100.00
12763;BME280;6445;52.490;13.378;2024-01-15T06:28:55;108016.69;;;-146.10;100.00
12763;BME280;6445;52.490;13.378;2024-01-15T06:31:20;109834.72;;;-146.10;100.00
12763;BME280;6445;52.490;13.378;2024-01-15T06:33:46;111653.59;;;-146.10;100.00
12763;BME280;6445;52.490;13.378;2024-01-15T06:36:13;112173.41;;;-146.10;100.00
12763;BME280;6445;52.490;13.378;2024-01-15T06:38:38;112693.28;;;-146.10;100.00
12763;BME280;6445;52.490;13.378;2024-01-15T06:41:03;112693.28;;;-146.10;100.00
12763;BME280;6445;52.490;13.378;2024-01-15T06:43:29;112693.28;;;-146.10;100.00
12763;BME280;6445;52.490;13.378;2024-01-15T06:45:54;112693.28;;;-146.10;100.00
12763;BME280;6445;52.490;13.378;2024-01-15T06:48:19;112693.28;;;-146.10;100.00
12763;BME280;6445;52.490;13.378;2024-01-15T06:50:45;112173.41;;;-146.10;100.00
12763;BME280;6445;52.490;13.378;2024-01-15T06:53:10;111913.50;;;-146.10;100.00
12763;BME280;6445;52.490;13.378;2024-01-15T06:55:35;111393.69;;;-146.10;100.00
12763;BME280;6445;52.490;13.378;2024-01-15T06:58:01;111133.81;;;-146.10;100.00
12763;BME280;6445;52.490;13.378;2024-01-15T07:00:26;110614.13;;;-146.10;100.00
12763;BME280;6445;52.490;13.378;2024-01-15T07:02:52;109834.72;;;-146.10;100.00
12763;BME280;6445;52.490;13.378;2024-01-15T07:05:17;109574.94;;;-146.10;100.00
12763;BME280;6445;52.490;13.378;2024-01-15T07:07:43;109574.94;;;-146.10;100.00
12763;BME280;6445;52.490;13.378;2024-01-15T07:10:08;108795.75;;;-146.10;100.00
12763;BME280;6445;52.490;13.378;2024-01-15T07:12:33;107237.78;;;-146.10;100.00
12763;BME280;6445;52.490;13.378;2024-01-15T07:14:59;106718.56;;;-146.10;100.00
12763;BME280;6445;52.490;13.378;2024-01-15T07:17:24;105939.91;;;-146.10;100.00
12763;BME280;6445;52.490;13.378;2024-01-15T07:19:49;105680.38;;;-146.10;100.00
12763;BME280;6445;52.490;13.378;2024-01-15T07:22:15;105161.41;;;-146.10;100.00
12763;BME280;6445;52.490;13.378;2024-01-15T07:24:43;104901.91;;;-146.10;100.00
12763;BME280;6445;52.490;13.378;2024-01-15T07:27:08;104123.59;;;-146.10;100.00
12763;BME280;6445;52.490;13.378;2024-01-15T07:29:34;103345.44;;;-146.10;100.00
12763;BME280;6445;52.490;13.378;2024-01-15T07:32:01;103086.06;;;-146.10;100.00
12763;BME280;6445;52.490;13.378;2024-01-15T07:34:26;102567.41;;;-146.10;100.00
12763;BME280;6445;52.490;13.378;2024-01-15T07:36:51;101789.53;;;-146.10;100.00
12763;BME280;6445;52.490;13.378;2024-01-15T07:39:18;101011.81;;;-146.10;100.00
12763;BME280;6445;52.490;13.378;2024-01-15T07:41:43;101011.81;;;-146.10;100.00
12763;BME280;6445;52.490;13.378;2024-01-15T07:44:09;101011.81;;;-146.10;100.00
12763;BME280;6445;52.490;13.378;2024-01-15T07:46:34;101789.53;;;-146.10;100.00
12763;BME280;6445;52.490;13.378;2024-01-15T07:48:59;101011.81;;;-146.10;100.00
12763;BME280;6445;52.490;13.378;2024-01-15T07:51:25;101011.81;;;-146.10;100.00
12763;BME280;6445;52.490;13.378;2024-01-15T07:53:53;101011.81;;;-146.10;100.00
12763;BME280;6445;52.490;13.378;2024-01-15T07:56:18;100752.63;;;-146.10;100.00
12763;BME280;6445;52.490;13.378;2024-01-15T07:58:43;101530.28;;;-146.10;100.00
12763;BME280;6445;52.490;13.378;2024-01-15T08:01:08;101011.81;;;-146.10;100.00
12763;BME280;6445;52.490;13.378;2024-01-15T08:03:34;101530.28;;;-146.10;100.00
12763;BME280;6445;52.490;13.378;2024-01-15T08:05:59;101271.06;;;-146.10;100.00
12763;BME280;6445;52.490;13.378;2024-01-15T08:08:25;101789.53;;;-146.10;100.00
12763;BME280;6445;52.490;13.378;2024-01-15T08:10:51;101271.06;;;-146.10;100.00
12763;BME280;6445;52.490;13.378;2024-01-15T08:13:17;101011.81;;;-146.10;100.00
12763;BME280;6445;52.490;13.378;2024-01-15T08:15:42;100752.63;;;-146.10;100.00
12763;BME280;6445;52.490;13.378;2024-01-15T08:18:07;101530.28;;;-146.10;100.00
12763;BME280;6445;52.490;13.378;2024-01-15T08:20:32;101011.81;;;-146.10;100.00
12763;BME280;6445;52.490;13.378;2024-01-15T08:22:58;101011.81;;;-146.10;100.00
12763;BME280;6445;52.490;13.378;2024-01-15T08:25:23;101271.06;;;-146.10;100.00
12763;BME280;6445;52.490;13.378;2024-01-15T08:27:48;102048.81;;;-146.10;100.00
12763;BME280;6445;52.490;13.378;2024-01-15T08:30:14;101530.28;;;-146.10;100.00
12763;BME280;6445;52.490;13.378;2024-01-15T08:32:39;101011.81;;;-146.10;100.00
12763;BME280;6445;52.490;13.378;2024-01-15T08:35:08;100234.25;;;-146.10;100.00
12763;BME280;6445;52.490;13.378;2024-01-15T08:37:33;99975.09;;;-146.10;100.00
12763;BME280;6445;52.490;13.378;2024-01-15T08:39:58;99715.97;;;-146.10;100.00
12763;BME280;6445;52.490;13.378;2024-01-15T08:42:24;99456.84;;;-146.10;100.00
12763;BME280;6445;52.490;13.378;2024-01-15T08:44:49;98420.50;;;-146.10;100.00
12763;BME280;6445;52.490;13.378;2024-01-15T08:47:15;98679.56;;;-146.10;100.00
12763;BME280;6445;52.490;13.378;2024-01-15T08:49:40;98679.56;;;-146.10;100.00
12763;BME280;6445;52.490;13.378;2024-01-15T08:52:07;97643.44;;;-146.10;100.00
12763;BME280;6445;52.490;13.378;2024-01-15T08:54:32;98161.47;;;-146.10;100.00
12763;BME280;6445;52.490;13.378;2024-01-15T08:56:58;98679.56;;;-146.10;100.00
12763;BME280;6445;52.490;13.378;2024-01-15T08:59:23;98679.56;;;-146.10;100.00
12763;BME280;6445;52.490;13.378;2024-01-15T09:01:49;99975.09;;;-146.10;100.00
12763;BME280;6445;52.490;13.378;2024-01-15T09:04:15;100493.44;;;-146.10;100.00
12763;BME280;6445;52.490;13.378;2024-01-15T09:06:40;100234.25;;;-146.10;100.00
12763;BME280;6445;52.490;13.378;2024-01-15T09:09:05;101011.81;;;-146.10;100.00
12763;BME280;6445;52.490;13.378;2024-01-15T09:11:31;101011.81;;;-146.10;100.00
12763;BME280;6445;52.490;13.378;2024-01-15T09:13:57;101011.81;;;-146.10;100.00
12763;BME280;6445;52.490;13.378;2024-01-15T09:16:22;102048.81;;;-146.10;100.00
12763;BME280;6445;52.490;13.378;2024-01-15T09:18:48;101530.28;;;-146.10;100.00
12763;BME280;6445;52.490;13.378;2024-01-15T09:21:13;101789.53;;;-146.10;100.00
12763;BME280;6445;52.490;13.378;2024-01-15T09:23:38;101789.53;;;-146.10;100.00
12763;BME280;6445;52.490;13.378;2024-01-15T09:26:04;102048.81;;;-146.10;100.00
12763;BME280;6445;52.490;13.378;2024-01-15T09:28:29;101011.81;;;-146.10;100.00
12763;BME280;6445;52.490;13.378;2024-01-15T09:30:54;100234.25;;;-146.10;100.00
12763;BME280;6445;52.490;13.378;2024-01-15T09:33:19;99975.09;;;-146.10;100.00
12763;BME280;6445;52.490;13.378;2024-01-15T09:35:45;100234.25;;;-146.10;100.00
12763;BME280;6445;52.490;13.378;2024-01-15T09:38:10;100234.25;;;-146.10;100.00
12763;BME280;6445;52.490;13.378;2024-01-15T09:40:38;100493.44;;;-146.10;100.00
12763;BME280;6445;52.490;13.378;2024-01-15T09:43:04;100752.63;;;-146.10;100.00
12763;BME280;6445;52.490;13.378;2024-01-15T09:45:30;99715.97;;;-146.10;100.00
12763;BME280;6445;52.490;13.378;2024-01-15T09:47:55;100752.63;;;-146.10;100.00
12763;BME280;6445;52.490;13.378;2024-01-15T09:50:21;101530.28;;;-146.10;100.00
12763;BME280;6445;52.490;13.378;2024-01-15T09:52:47;101530.28;;;-146.10;100.00
12763;BME280;6445;52.490;13.378;2024-01-15T09:55:13;101011.81;;;-146.10;100.00
12763;BME280;6445;52.490;13.378;2024-01-15T09:57:39;100752.63;;;-146.10;100.00
12763;BME280;6445;52.490;13.378;2024-01-15T10:00:05;99975.09;;;-146.10;100.00
12763;BME280;6445;52.490;13.378;2024-01-15T10:02:31;99456.84;;;-146.10;100.00
12763;BME280;6445;52.490;13.378;2024-01-15T10:04:57;99975.09;;;-146.10;100.00
12763;BME280;6445;52.490;13.378;2024-01-15T10:07:23;99715.97;;;-146.10;100.00
12763;BME280;6445;52.490;13.378;2024-01-15T10:09:50;99456.84;;;-146.10;100.00
12763;BME280;6445;52.490;13.378;2024-01-15T10:12:15;98161.47;;;-146.10;100.00
12763;BME280;6445;52.490;13.378;2024-01-15T10:14:41;98420.50;;;-146.10;100.00
12763;BME280;6445;52.490;13.378;2024-01-15T10:17:14;97902.44;;;-146.10;100.00
12763;BME280;6445;52.490;13.378;2024-01-15T10:19:44;97125.47;;;-146.10;100.00
12763;BME280;6445;52.490;13.378;2024-01-15T10:22:10;97902.44;;;-146.10;100.00
12763;BME280;6445;52.490;13.378;2024-01-15T10:24:40;98420.50;;;-146.10;100.00
12763;BME280;6445;52.490;13.378;2024-01-15T10:27:09;98679.56;;;-146.10;100.00
12763;BME280;6445;52.490;13.378;2024-01-15T10:29:35;95571.97;;;-146.10;100.00
12763;BME280;6445;52.490;13.378;2024-01-15T10:32:02;95313.09;;;-146.10;100.00
12763;BME280;6445;52.490;13.378;2024-01-15T10:34:27;95830.84;;;-146.10;100.00
12763;BME280;6445;52.490;13.378;2024-01-15T10:36:53;96089.72;;;-146.10;100.00
12763;BME280;6445;52.490;13.378;2024-01-15T10:39:24;94277.81;;;-146.10;100.00
12763;BME280;6445;52.490;13.378;2024-01-15T10:41:50;94795.44;;;-146.10;100.00
12763;BME280;6445;52.490;13.378;2024-01-15T10:44:16;95830.84;;;-146.10;100.00
12763;BME280;6445;52.490;13.378;2024-01-15T10:46:42;95571.97;;;-146.10;100.00
12763;BME280;6445;52.490;13.378;2024-01-15T10:49:09;95571.97;;;-146.10;100.00
12763;BME280;6445;52.490;13.378;2024-01-15T10:51:36;93760.28;;;-146.10;100.00
12763;BME280;6445;52.490;13.378;2024-01-15T10:54:01;91949.44;;;-146.10;100.00
12763;BME280;6445;52.490;13.378;2024-01-15T10:56:27;88071.75;;;-146.10;100.00
12763;BME280;6445;52.490;13.378;2024-01-15T10:58:54;89880.88;;;-146.10;100.00
12763;BME280;6445;52.490;13.378;2024-01-15T11:01:20;89363.91;;;-146.10;100.00
12763;BME280;6445;52.490;13.378;2024-01-15T11:03:45;90656.47;;;-146.10;100.00
12763;BME280;6445;52.490;13.378;2024-01-15T11:06:18;89363.91;;;-146.10;100.00
12763;BME280;6445;52.490;13.378;2024-01-15T11:08:50;87555.03;;;-146.10;100.00
12763;BME280;6445;52.490;13.378;2024-01-15T11:11:16;85488.72;;;-146.10;100.00
12763;BME280;6445;52.490;13.378;2024-01-15T11:13:42;83681.59;;;-146.10;99.28
12763;BME280;6445;52.490;13.378;2024-01-15T11:16:14;84455.97;;;-146.10;99.46
12763;BME280;6445;52.490;13.378;2024-01-15T11:18:42;86005.19;;;-146.10;100.00
12763;BME280;6445;52.490;13.378;2024-01-15T11:23:43;90397.91;;;-146.10;100.00
12763;BME280;6445;52.490;13.378;2024-01-15T11:26:30;92725.41;;;-146.10;100.00
12763;BME280;6445;52.490;13.378;2024-01-15T11:28:57;94536.63;;;-146.10;100.00
12763;BME280;6445;52.490;13.378;2024-01-15T11:31:56;96348.63;;;-146.10;100.00
12763;BME280;6445;52.490;13.378;2024-01-15T11:34:54;96866.50;;;-146.10;100.00
12763;BME280;6445;52.490;13.378;2024-01-15T11:37:25;98420.50;;;-146.10;100.00
12763;BME280;6445;52.490;13.378;2024-01-15T11:39:56;99456.84;;;-146.10;100.00
12763;BME280;6445;52.490;13.378;2024-01-15T11:42:21;102567.41;;;-146.10;100.00
12763;BME280;6445;52.490;13.378;2024-01-15T11:44:48;106199.44;;;-146.10;100.00
12763;BME280;6445;52.490;13.378;2024-01-15T11:47:13;108016.69;;;-146.10;100.00
12763;BME280;6445;52.490;13.378;2024-01-15T11:50:01;109315.19;;;-146.10;100.00
12763;BME280;6445;52.490;13.378;2024-01-15T11:52:32;111133.81;;;-146.10;100.00
12763;BME280;6445;52.490;13.378;2024-01-15T11:55:01;111393.69;;;-146.10;100.00
12763;BME280;6445;52.490;13.378;2024-01-15T12:00:08;112693.28;;;-146.10;100.00
12763;BME280;6445;52.490;13.378;2024-01-15T12:02:34;112953.25;;;-146.10;100.00
12763;BME280;6445;52.490;13.378;2024-01-15T12:04:59;112693.28;;;-146.10;100.00
12763;BME280;6445;52.490;13.378;2024-01-15T12:07:24;112953.25;;;-146.10;100.00
12763;BME280;6445;52.490;13.378;2024-01-15T12:09:49;112693.28;;;-146.10;100.00
12763;BME280;6445;52.490;13.378;2024-01-15T12:12:23;112693.28;;;-146.10;100.00
12763;BME280;6445;52.490;13.378;2024-01-15T12:14:50;111653.59;;;-146.10;100.00
12763;BME280;6445;52.490;13.378;2024-01-15T12:17:15;111653.59;;;-146.10;100.00
12763;BME280;6445;52.490;13.378;2024-01-15T12:19:41;111653.59;;;-146.10;100.00
12763;BME280;6445;52.490;13.378;2024-01-15T12:22:06;111913.50;;;-146.10;100.00